Time;durP1;ratioP1;P1;durP2;ratioP2;P2;SDS_P1;SDS_P2;PMS_P1;PMS_P2;Temp;Humidity;BMP_temperature;BMP_pressure;BME280_temperature;BME280_humidity;BME280_pressure;Samples;Min_cycle;Max_cycle;Signal;HPM_P1;HPM_P2
2021/06/12 00:00:06;;;;;;;0.80;0.70;;;18.60;99.90;;;18.96;100.00;-21195.72;5057136;28;20503;-75
2021/06/12 00:02:33;;;;;;;0.80;0.70;;;18.50;99.90;;;18.90;100.00;-21194.06;5070722;28;20431;-76
2021/06/12 00:05:01;;;;;;;0.80;0.70;;;18.50;99.90;;;18.79;100.00;-21191.34;5075368;28;20453;-75
2021/06/12 00:07:30;;;;;;;0.70;0.60;;;18.40;99.90;;;18.69;100.00;-21188.59;5059601;28;20760;-75
2021/06/12 00:09:58;;;;;;;0.77;0.63;;;18.40;99.90;;;18.63;100.00;-21186.97;5072344;28;20439;-75
2021/06/12 00:12:26;;;;;;;0.80;0.60;;;18.30;99.90;;;18.58;100.00;-21185.59;5068950;28;20453;-74
2021/06/12 00:14:54;;;;;;;0.80;0.80;;;18.20;99.90;;;18.57;100.00;-20696.50;5058609;28;20462;-75
2021/06/12 00:17:22;;;;;;;1.10;1.00;;;18.10;99.90;;;18.67;100.00;-19831.19;5057129;28;20447;-75
2021/06/12 00:19:50;;;;;;;0.80;0.70;;;18.10;99.90;;;18.67;100.00;-18891.91;5055814;28;20476;-75
2021/06/12 00:22:17;;;;;;;0.70;0.70;;;18.10;99.90;;;18.73;100.00;-17588.22;5067637;28;20988;-75
2021/06/12 00:24:46;;;;;;;0.80;0.70;;;18.20;99.90;;;18.83;100.00;-16548.59;5073136;28;20442;-74
2021/06/12 00:27:14;;;;;;;0.80;0.73;;;18.20;99.90;;;18.89;100.00;-15538.06;5062458;28;20506;-76
2021/06/12 00:29:41;;;;;;;0.80;0.70;;;18.30;99.90;;;18.93;100.00;-14460.78;5058879;28;20443;-76
2021/06/12 00:32:09;;;;;;;0.70;0.60;;;18.40;99.90;;;18.93;100.00;-13639.22;5054906;28;20408;-76
2021/06/12 00:34:36;;;;;;;0.70;0.60;;;18.40;99.90;;;18.89;100.00;-13122.22;5054832;28;20547;-76
2021/06/12 00:37:04;;;;;;;0.70;0.60;;;18.40;99.90;;;18.80;100.00;-12502.84;5054311;28;20438;-76
2021/06/12 00:39:33;;;;;;;0.70;0.60;;;18.40;99.90;;;18.70;100.00;-11481.31;5055720;28;20845;-76
2021/06/12 00:42:02;;;;;;;0.80;0.70;;;18.30;99.90;;;18.60;100.00;-9996.56;5054051;28;20823;-76
2021/06/12 00:44:30;;;;;;;0.70;0.60;;;18.30;99.90;;;18.51;100.00;-7971.91;5076047;28;20401;-74
2021/06/12 00:47:00;;;;;;;0.70;0.60;;;18.20;99.90;;;18.47;100.00;-5643.47;5073904;28;20483;-76
2021/06/12 00:49:27;;;;;;;0.80;0.70;;;18.10;99.90;;;18.41;100.00;-3402.97;5065128;28;20459;-74
2021/06/12 00:51:58;;;;;;;0.80;0.60;;;18.00;99.90;;;18.37;100.00;-1283.69;5069256;28;20995;-73
2021/06/12 00:54:27;;;;;;;0.70;0.67;;;18.00;99.90;;;18.29;100.00;1293.28;5053883;28;20478;-76
2021/06/12 00:56:55;;;;;;;0.70;0.60;;;17.90;99.90;;;18.29;100.00;3318.34;5057312;28;20538;-74
2021/06/12 00:59:25;;;;;;;0.77;0.63;;;17.90;99.90;;;18.30;100.00;4509.06;5068954;28;20448;-74
2021/06/12 01:01:53;;;;;;;0.77;0.70;;;17.90;99.90;;;18.31;100.00;5592.78;5054448;28;20839;-76
2021/06/12 01:04:20;;;;;;;0.80;0.70;;;17.90;99.90;;;18.34;100.00;6636.44;5053590;28;20436;-75
2021/06/12 01:06:51;;;;;;;0.80;0.70;;;17.90;99.90;;;18.41;100.00;7412.59;5053958;28;20447;-76
2021/06/12 01:09:19;;;;;;;0.70;0.60;;;17.90;99.90;;;18.41;100.00;7722.16;5074695;28;20443;-76
2021/06/12 01:12:01;;;;;;;0.70;0.60;;;17.90;99.90;;;18.37;100.00;7711.13;5054203;28;20987;-76
2021/06/12 01:14:36;;;;;;;0.80;0.70;;;17.90;99.90;;;18.29;100.00;7615.03;5037975;28;20477;-75
2021/06/12 01:17:12;;;;;;;0.70;0.60;;;17.90;99.90;;;18.20;100.00;7644.06;5072597;28;20801;-76
2021/06/12 01:20:26;;;;;;;0.70;0.60;;;17.80;99.90;;;18.13;100.00;7338.31;5063405;28;20433;-75
2021/06/12 01:23:35;;;;;;;0.77;0.70;;;17.70;99.90;;;18.03;100.00;7277.72;5066629;28;20457;-76
2021/06/12 01:26:49;;;;;;;0.73;0.67;;;17.60;99.90;;;18.00;100.00;7215.81;5038749;28;20524;-76
2021/06/12 01:29:38;;;;;;;0.70;0.60;;;17.60;99.90;;;17.97;100.00;7077.31;5021642;28;20432;-76
2021/06/12 01:32:10;;;;;;;0.80;0.70;;;17.60;99.90;;;17.93;100.00;6933.44;5068703;28;20485;-75
2021/06/12 01:34:41;;;;;;;0.80;0.70;;;17.50;99.90;;;17.86;100.00;6329.22;5074014;28;20447;-76
2021/06/12 01:37:11;;;;;;;0.80;0.70;;;17.50;99.90;;;17.93;100.00;5699.16;5071158;28;20403;-76
2021/06/12 01:39:40;;;;;;;0.70;0.60;;;17.40;99.90;;;17.94;100.00;4907.50;5070112;28;20973;-75
2021/06/12 01:42:12;;;;;;;0.80;0.60;;;17.40;99.90;;;17.90;100.00;4051.34;5047335;28;21027;-75
2021/06/12 01:44:41;;;;;;;0.80;0.77;;;17.40;99.90;;;17.85;100.00;3177.66;5052535;28;20941;-75
2021/06/12 01:47:14;;;;;;;0.73;0.67;;;17.40;99.90;;;17.81;100.00;1773.72;5040434;28;20423;-74
2021/06/12 01:49:42;;;;;;;0.80;0.80;;;17.40;99.90;;;17.79;100.00;449.69;5076868;28;20453;-75
2021/06/12 01:52:13;;;;;;;0.80;0.70;;;17.30;99.90;;;17.81;100.00;-825.00;5054289;28;20406;-75
2021/06/12 01:54:41;;;;;;;0.80;0.80;;;17.30;99.90;;;17.85;100.00;-1953.97;5057299;28;20473;-74
2021/06/12 01:57:11;;;;;;;0.80;0.70;;;17.40;99.90;;;17.91;100.00;-2845.72;5052084;28;20435;-76
2021/06/12 01:59:39;;;;;;;1.57;1.33;;;17.40;99.90;;;18.01;100.00;-3951.31;5062686;28;20430;-75
2021/06/12 02:02:09;;;;;;;0.80;0.70;;;17.40;99.90;;;18.10;100.00;-4758.88;5053529;28;20840;-75
2021/06/12 02:04:40;;;;;;;0.80;0.60;;;17.50;99.90;;;18.22;100.00;-5622.59;5067879;28;20544;-75
2021/06/12 02:07:09;;;;;;;0.70;0.60;;;17.60;99.90;;;18.31;100.00;-6279.97;5064348;28;20536;-75
2021/06/12 02:09:39;;;;;;;0.80;0.70;;;17.70;99.90;;;18.40;100.00;-6924.66;5069214;28;20450;-75
2021/06/12 02:12:09;;;;;;;0.70;0.60;;;17.80;99.90;;;18.47;100.00;-7457.25;5069104;28;20417;-76
2021/06/12 02:14:39;;;;;;;0.70;0.60;;;17.80;99.90;;;18.55;100.00;-8061.31;5051474;28;20461;-76
2021/06/12 02:17:08;;;;;;;0.70;0.67;;;17.90;99.90;;;18.59;100.00;-8369.69;5066554;28;20450;-76
2021/06/12 02:19:41;;;;;;;0.73;0.67;;;18.00;99.90;;;18.63;100.00;-8647.50;5061379;28;20469;-76
2021/06/12 02:22:08;;;;;;;2.30;2.10;;;18.10;99.90;;;18.65;100.00;-8917.56;5058739;28;20916;-76
2021/06/12 02:24:36;;;;;;;0.70;0.60;;;18.10;99.90;;;18.66;100.00;-9210.47;5053669;28;20448;-76
2021/06/12 02:27:07;;;;;;;0.80;0.70;;;18.10;99.90;;;18.65;100.00;-9439.53;5054488;28;20427;-76
2021/06/12 02:29:36;;;;;;;0.80;0.80;;;18.10;99.90;;;18.68;100.00;-9617.94;5063247;28;20492;-75
2021/06/12 02:32:08;;;;;;;0.77;0.70;;;18.10;99.90;;;18.65;100.00;-9673.75;5070968;28;20439;-75
2021/06/12 02:34:37;;;;;;;0.80;0.70;;;18.20;99.90;;;18.68;100.00;-9857.25;5072888;28;20459;-76
2021/06/12 02:37:06;;;;;;;0.70;0.60;;;18.20;99.90;;;18.69;100.00;-9763.19;5054586;28;20479;-76
2021/06/12 02:39:34;;;;;;;0.80;0.70;;;18.20;99.90;;;18.75;100.00;-9684.78;5052002;28;20467;-76
2021/06/12 02:42:04;;;;;;;0.80;0.70;;;18.20;99.90;;;18.74;100.00;-9766.19;5068928;28;20439;-77
2021/06/12 02:44:32;;;;;;;6.10;2.10;;;18.30;99.90;;;18.79;100.00;-9621.50;5072339;28;20466;-77
2021/06/12 02:47:04;;;;;;;0.70;0.60;;;18.30;99.90;;;18.77;100.00;-9639.13;5066381;28;20428;-75
2021/06/12 02:49:36;;;;;;;0.77;0.70;;;18.30;99.90;;;18.80;100.00;-9629.16;5056983;28;20951;-75
2021/06/12 02:52:14;;;;;;;0.70;0.60;;;18.30;99.90;;;18.81;100.00;-9692.97;5063693;28;20446;-75
2021/06/12 02:54:45;;;;;;;0.80;0.70;;;18.30;99.90;;;18.82;100.00;-9598.81;5051560;28;20520;-76
2021/06/12 02:57:15;;;;;;;0.70;0.60;;;18.30;99.90;;;18.88;100.00;-9614.53;5055687;28;20426;-75
2021/06/12 02:59:44;;;;;;;0.80;0.80;;;18.30;99.90;;;18.95;100.00;-9599.84;5071268;28;20481;-75
2021/06/12 03:02:13;;;;;;;0.80;0.70;;;18.40;99.90;;;19.06;100.00;-9695.06;5071963;28;20479;-75
2021/06/12 03:04:43;;;;;;;0.80;0.70;;;18.50;99.90;;;19.08;100.00;-9544.91;5072330;28;20470;-75
2021/06/12 03:07:14;;;;;;;0.70;0.60;;;18.50;99.90;;;19.12;100.00;-9499.41;5052942;28;20442;-76
2021/06/12 03:09:44;;;;;;;0.70;0.60;;;18.60;99.90;;;19.08;100.00;-9723.25;5049617;28;20456;-75
2021/06/12 03:12:13;;;;;;;0.70;0.60;;;18.60;99.90;;;19.08;100.00;-9881.16;5055962;28;20890;-75
2021/06/12 03:14:42;;;;;;;0.70;0.70;;;18.60;99.90;;;19.04;100.00;-9870.63;5055593;28;20531;-76
2021/06/12 03:17:11;;;;;;;0.80;0.60;;;18.50;99.90;;;19.03;100.00;-9862.91;5064606;28;20436;-75
2021/06/12 03:19:41;;;;;;;0.70;0.60;;;18.50;99.90;;;19.10;100.00;-10141.19;5073726;28;20545;-75
2021/06/12 03:22:13;;;;;;;0.87;0.87;;;18.60;99.90;;;19.21;100.00;-9917.97;5074274;28;20436;-75
2021/06/12 03:24:43;;;;;;;0.80;0.70;;;18.60;99.90;;;19.22;100.00;-10381.75;5075208;28;20462;-76
2021/06/12 03:27:12;;;;;;;0.70;0.70;;;18.70;99.90;;;19.24;100.00;-10919.44;5074793;28;20523;-75
2021/06/12 03:29:40;;;;;;;0.73;0.70;;;18.70;99.90;;;19.25;100.00;-11146.31;5058732;28;20435;-75
2021/06/12 03:32:09;;;;;;;0.80;0.70;;;18.70;99.90;;;19.17;100.00;-11043.53;5076364;28;20451;-76
2021/06/12 03:34:37;;;;;;;0.80;0.70;;;18.70;99.90;;;19.18;100.00;-11242.31;5076221;28;20459;-75
2021/06/12 03:37:06;;;;;;;1.10;1.00;;;18.70;99.90;;;19.19;100.00;-11069.22;5062026;28;20943;-75
2021/06/12 03:39:35;;;;;;;0.80;0.80;;;18.70;99.90;;;19.20;100.00;-11064.19;5058723;28;20468;-75
2021/06/12 03:42:05;;;;;;;0.70;0.60;;;18.70;99.90;;;19.20;100.00;-11125.31;5054934;28;20533;-75
2021/06/12 03:44:33;;;;;;;0.70;0.60;;;18.70;99.90;;;19.21;100.00;-11054.16;5055700;28;20415;-74
2021/06/12 03:47:02;;;;;;;0.70;0.60;;;18.70;99.90;;;19.23;100.00;-11357.47;5063542;28;20446;-75
2021/06/12 03:49:30;;;;;;;0.70;0.60;;;18.70;99.90;;;19.24;100.00;-11846.53;5074808;28;21034;-74
2021/06/12 03:51:58;;;;;;;0.80;0.70;;;18.70;99.90;;;19.21;100.00;-11894.50;5076228;28;20844;-75
2021/06/12 03:54:27;;;;;;;0.80;0.67;;;18.70;99.90;;;19.25;100.00;-11696.41;5070623;28;20451;-75
2021/06/12 03:56:57;;;;;;;0.80;0.70;;;18.70;99.90;;;19.27;100.00;-11655.91;5076080;28;20407;-76
2021/06/12 03:59:25;;;;;;;0.70;0.60;;;18.80;99.90;;;19.38;100.00;-11957.66;5058943;28;20956;-76
2021/06/12 04:01:53;;;;;;;0.70;0.60;;;18.80;99.90;;;19.44;100.00;-12707.22;5064108;28;20518;-75
2021/06/12 04:04:24;;;;;;;0.77;0.70;;;18.80;99.90;;;19.42;100.00;-12997.19;5072243;28;20809;-75
2021/06/12 04:06:51;;;;;;;0.73;0.60;;;18.90;99.90;;;19.48;100.00;-13512.38;5053611;28;20930;-76
2021/06/12 04:09:19;;;;;;;0.77;0.60;;;18.90;99.90;;;19.53;100.00;-14027.44;5054985;28;20812;-75
2021/06/12 04:11:47;;;;;;;0.80;0.70;;;19.00;99.90;;;19.54;100.00;-14582.56;5060272;28;20522;-74
2021/06/12 04:14:16;;;;;;;5.80;1.23;;;19.00;99.90;;;19.59;100.00;-14305.91;5070322;28;20458;-75
2021/06/12 04:16:44;;;;;;;0.80;0.70;;;19.10;99.90;;;19.69;100.00;-14101.25;5074134;28;20463;-74
2021/06/12 04:19:11;;;;;;;0.80;0.80;;;19.10;99.90;;;19.86;100.00;-15815.13;5085230;28;20439;-74
2021/06/12 04:21:39;;;;;;;0.70;0.60;;;19.20;99.90;;;19.84;100.00;-17352.03;5053042;28;20474;-75
2021/06/12 04:24:07;;;;;;;0.70;0.60;;;19.30;99.90;;;19.95;100.00;-19109.81;5065315;28;20460;-75
2021/06/12 04:26:35;;;;;;;0.93;0.90;;;19.30;99.90;;;19.99;100.00;-20367.16;5066119;28;20454;-75
2021/06/12 04:29:03;;;;;;;0.90;0.90;;;19.40;99.90;;;19.99;100.00;-21223.34;5060408;28;21064;-75
2021/06/12 04:31:34;;;;;;;0.70;0.60;;;19.40;99.90;;;20.14;100.00;-21227.44;5074514;28;20512;-75
2021/06/12 04:34:03;;;;;;;0.70;0.60;;;19.50;99.90;;;20.03;100.00;-21224.44;5072951;28;20911;-77
2021/06/12 04:36:31;;;;;;;0.70;0.63;;;19.50;99.90;;;20.06;100.00;-21225.25;5073959;28;20455;-75
2021/06/12 04:38:59;;;;;;;0.70;0.60;;;19.50;99.90;;;20.19;100.00;-21228.66;5054458;28;20551;-75
2021/06/12 04:41:26;;;;;;;0.80;0.70;;;19.60;99.90;;;20.18;100.00;-21228.53;5036689;28;20474;-76
2021/06/12 04:43:54;;;;;;;0.70;0.70;;;19.60;99.90;;;20.10;100.00;-21226.34;5053055;28;20478;-75
2021/06/12 04:46:21;;;;;;;0.80;0.80;;;19.60;99.90;;;20.09;100.00;-21226.06;5055790;28;20456;-75
2021/06/12 04:48:51;;;;;;;0.80;0.70;;;19.60;99.90;;;20.07;100.00;-21225.53;5066613;28;20435;-78
2021/06/12 04:51:18;;;;;;;0.80;0.67;;;19.60;99.90;;;20.27;100.00;-21230.84;5052686;28;20431;-78
2021/06/12 04:53:46;;;;;;;0.80;0.70;;;19.70;99.90;;;20.02;100.00;-21224.16;5070200;28;20800;-77
2021/06/12 04:56:13;;;;;;;0.70;0.60;;;19.70;99.90;;;19.91;100.00;-21221.28;5073092;28;20508;-76
2021/06/12 04:58:41;;;;;;;0.73;0.70;;;19.60;99.90;;;19.84;100.00;-21219.25;5059465;28;20432;-76
2021/06/12 05:01:09;;;;;;;0.80;0.70;;;19.50;99.90;;;19.86;100.00;-21219.94;5053507;28;20793;-76
2021/06/12 05:03:36;;;;;;;0.80;0.70;;;19.50;99.90;;;19.78;100.00;-21217.88;5054022;28;20433;-75
2021/06/12 05:06:06;;;;;;;0.77;0.70;;;19.50;99.90;;;19.90;100.00;-21221.03;5053145;28;244763;-75
2021/06/12 05:08:33;;;;;;;0.70;0.60;;;19.40;99.90;;;20.07;100.00;-21225.38;5050140;28;20465;-76
2021/06/12 05:11:01;;;;;;;0.80;0.70;;;19.50;99.90;;;19.98;100.00;-21223.19;5053488;28;20511;-78
2021/06/12 05:13:31;;;;;;;0.77;0.60;;;19.60;99.90;;;20.07;100.00;-21225.53;5054941;28;20458;-76
2021/06/12 05:16:00;;;;;;;0.70;0.60;;;19.60;99.90;;;20.19;100.00;-21228.81;5061899;28;20491;-77
2021/06/12 05:18:38;;;;;;;0.80;0.70;;;19.60;99.90;;;20.13;100.00;-21227.16;5073052;28;20844;-75
2021/06/12 05:21:09;;;;;;;1.10;1.00;;;19.60;99.90;;;20.38;100.00;-21233.72;5070348;28;20438;-76
2021/06/12 05:23:37;;;;;;;0.70;0.60;;;19.70;99.90;;;20.70;100.00;-21242.34;5073650;28;20783;-76
2021/06/12 05:26:05;;;;;;;0.70;0.60;;;19.80;99.90;;;20.53;100.00;-21237.69;5072322;28;20418;-76
2021/06/12 05:28:34;;;;;;;0.80;0.70;;;19.90;99.90;;;20.38;100.00;-21233.72;5074833;28;20411;-80
2021/06/12 05:31:02;;;;;;;0.80;0.70;;;20.00;99.90;;;20.62;100.00;-21240.16;5064215;28;20439;-77
2021/06/12 05:33:32;;;;;;;0.80;0.70;;;20.10;99.90;;;20.54;100.00;-21238.09;5061527;28;20810;-79
2021/06/12 05:36:01;;;;;;;0.80;0.67;;;20.10;99.90;;;20.65;100.00;-21241.09;5058407;28;20482;-75
2021/06/12 05:38:32;;;;;;;0.70;0.60;;;20.10;99.90;;;20.49;100.00;-21236.72;5072940;28;20482;-78
2021/06/12 05:41:00;;;;;;;0.73;0.63;;;20.10;99.90;;;20.70;100.00;-21242.34;5073385;28;20447;-78
2021/06/12 05:43:28;;;;;;;0.70;0.60;;;20.20;99.90;;;20.70;100.00;-21242.47;5056698;28;20470;-77
2021/06/12 05:45:55;;;;;;;1.00;0.90;;;20.20;99.90;;;20.59;100.00;-21239.47;5061092;28;20748;-79
2021/06/12 05:48:25;;;;;;;0.70;0.70;;;20.20;99.90;;;20.60;100.00;-21239.72;5053138;28;20916;-78
2021/06/12 05:50:53;;;;;;;0.80;0.70;;;20.20;99.90;;;20.78;100.00;-21244.38;5053844;28;20428;-79
2021/06/12 05:53:23;;;;;;;0.70;0.60;;;20.30;99.90;;;20.84;100.00;-21246.00;5069637;28;20450;-77
2021/06/12 05:55:52;;;;;;;0.70;0.60;;;20.30;99.90;;;20.52;100.00;-21237.41;5051888;28;20844;-78
2021/06/12 05:58:20;;;;;;;0.70;0.70;;;20.30;99.90;;;20.67;100.00;-21241.66;5052816;28;20438;-77
2021/06/12 06:00:48;;;;;;;0.77;0.67;;;20.30;99.90;;;20.85;100.00;-21246.28;5055898;28;20390;-77
2021/06/12 06:03:16;;;;;;;0.70;0.60;;;20.30;99.90;;;20.89;100.00;-21247.38;5072688;28;20522;-77
2021/06/12 06:05:43;;;;;;;0.70;0.70;;;20.40;99.90;;;21.09;100.00;-21252.69;5071775;28;20439;-76
2021/06/12 06:08:11;;;;;;;0.80;0.60;;;20.50;99.90;;;21.22;100.00;-21256.38;5068536;28;20460;-77
2021/06/12 06:10:38;;;;;;;0.80;0.80;;;20.50;99.90;;;21.20;100.00;-21255.84;5053169;28;20432;-77
2021/06/12 06:13:07;;;;;;;0.70;0.60;;;20.60;99.90;;;21.04;100.00;-21251.47;5036237;28;20474;-80
2021/06/12 06:15:37;;;;;;;0.77;0.60;;;20.60;99.90;;;21.12;100.00;-21253.66;5052020;28;20448;-80
2021/06/12 06:18:05;;;;;;;0.80;0.70;;;20.60;99.90;;;21.13;100.00;-21253.78;5063181;28;20459;-78
2021/06/12 06:20:33;;;;;;;0.80;0.70;;;20.70;99.90;;;21.52;100.00;-21264.28;5071890;28;20442;-78
2021/06/12 06:23:01;;;;;;;0.80;0.80;;;20.80;99.90;;;21.59;100.00;-21266.19;5073908;28;20554;-77
2021/06/12 06:25:32;;;;;;;0.80;0.70;;;20.90;99.90;;;21.53;100.00;-21264.56;5067387;28;20439;-79
2021/06/12 06:28:00;;;;;;;0.80;0.80;;;21.00;99.90;;;21.50;100.00;-21263.75;5061281;28;20920;-77
2021/06/12 06:30:29;;;;;;;0.80;0.70;;;21.00;99.90;;;21.40;100.00;-21261.16;5070257;28;20419;-78
2021/06/12 06:32:57;;;;;;;0.80;0.70;;;21.00;99.90;;;21.63;100.00;-21267.28;5069733;28;20424;-76
2021/06/12 06:35:25;;;;;;;0.73;0.70;;;21.00;99.90;;;21.90;100.00;-21274.38;5057825;28;20431;-80
2021/06/12 06:37:56;;;;;;;0.80;0.70;;;21.20;99.90;;;22.23;100.00;-21283.09;5055565;28;20446;-77
2021/06/12 06:40:25;;;;;;;0.80;0.70;;;21.40;99.90;;;21.86;100.00;-21273.44;5073393;28;20515;-78
2021/06/12 06:42:53;;;;;;;0.80;0.70;;;21.50;99.90;;;21.71;100.00;-21269.47;5060327;28;20997;-78
2021/06/12 06:45:44;;;;;;;0.70;0.60;;;21.50;99.90;;;21.62;100.00;-21266.88;5051961;28;20511;-77
2021/06/12 06:48:13;;;;;;;0.90;0.70;;;21.40;99.90;;;22.13;100.00;-21280.66;5054923;28;20780;-79
2021/06/12 06:50:41;;;;;;;0.70;0.60;;;21.40;99.90;;;22.07;100.00;-21279.00;5065791;28;20834;-79
2021/06/12 06:53:10;;;;;;;0.80;0.70;;;21.40;99.90;;;22.15;100.00;-21281.19;5060152;28;20459;-85
2021/06/12 06:55:38;;;;;;;0.80;0.70;;;21.50;99.90;;;22.27;100.00;-21284.19;5063248;28;20428;-80
2021/06/12 06:58:06;;;;;;;0.70;0.60;;;21.50;99.90;;;22.30;100.00;-21285.00;5064304;28;20423;-78
2021/06/12 07:00:35;;;;;;;0.73;0.70;;;21.60;99.90;;;22.38;100.00;-21287.19;5064476;28;20432;-78
2021/06/12 07:03:04;;;;;;;0.70;0.67;;;21.70;99.90;;;22.22;100.00;-21282.84;5059889;28;20830;-78
2021/06/12 07:05:32;;;;;;;0.80;0.70;;;21.60;99.90;;;22.05;100.00;-21278.47;5071246;28;20801;-80
2021/06/12 07:08:00;;;;;;;0.80;0.70;;;21.60;99.90;;;21.84;100.00;-21272.75;5071832;28;20541;-78
2021/06/12 07:10:30;;;;;;;0.80;0.70;;;21.60;99.90;;;22.14;100.00;-21280.78;5052995;28;20843;-79
2021/06/12 07:13:01;;;;;;;0.80;0.70;;;21.60;99.90;;;22.26;100.00;-21283.91;5070695;28;20446;-80
2021/06/12 07:15:30;;;;;;;0.73;0.60;;;21.70;99.90;;;22.36;100.00;-21286.66;5070421;28;20451;-78
2021/06/12 07:17:58;;;;;;;0.70;0.60;;;21.80;99.90;;;22.23;100.00;-21283.09;5070892;28;20497;-82
2021/06/12 07:20:28;;;;;;;0.77;0.60;;;21.90;99.90;;;22.51;100.00;-21290.72;5054224;28;20489;-79
2021/06/12 07:22:56;;;;;;;0.70;0.60;;;21.90;99.90;;;22.79;100.00;-21298.22;5071686;28;20417;-77
2021/06/12 07:25:24;;;;;;;0.90;0.80;;;22.10;99.90;;;22.72;100.00;-21296.16;5063919;28;20470;-82
2021/06/12 07:27:53;;;;;;;0.80;0.60;;;22.20;99.90;;;22.78;100.00;-21297.81;5061735;28;20885;-78
2021/06/12 07:30:22;;;;;;;0.90;0.80;;;22.30;99.90;;;22.82;100.00;-21298.88;5052568;28;20447;-86
2021/06/12 07:32:50;;;;;;;0.70;0.60;;;22.40;99.90;;;23.05;100.00;-21305.16;5070780;28;20419;-76
2021/06/12 07:35:19;;;;;;;0.70;0.60;;;22.60;99.90;;;23.66;100.00;-21321.34;5053504;28;20498;-80
2021/06/12 07:37:48;;;;;;;0.80;0.60;;;23.00;99.90;;;23.42;100.00;-21314.94;5072470;28;20562;-81
2021/06/12 07:40:18;;;;;;;0.80;0.60;;;23.00;99.90;;;23.84;100.00;-21326.09;5069912;28;20446;-78
2021/06/12 07:42:46;;;;;;;0.80;0.80;;;23.30;99.90;;;24.06;100.00;-21332.06;5049255;28;20406;-77
2021/06/12 07:45:14;;;;;;;0.70;0.60;;;23.40;99.90;;;23.61;100.00;-21320.13;5068791;28;20826;-80
2021/06/12 07:47:47;;;;;;;0.80;0.70;;;23.40;99.90;;;23.17;100.00;-21308.28;5061163;28;20394;-78
2021/06/12 07:50:18;;;;;;;0.90;0.70;;;23.10;99.90;;;23.08;100.00;-21305.97;5068996;28;20377;-82
2021/06/12 07:52:48;;;;;;;0.80;0.70;;;22.90;99.90;;;22.74;100.00;-21296.72;5060752;28;20436;-77
2021/06/12 07:55:15;;;;;;;0.80;0.60;;;22.50;99.90;;;22.49;100.00;-21290.19;5061962;28;20394;-78
2021/06/12 07:57:44;;;;;;;0.80;0.60;;;22.30;99.90;;;22.23;100.00;-21283.09;5064695;28;20982;-77
2021/06/12 08:00:15;;;;;;;0.80;0.60;;;22.00;99.90;;;22.32;100.00;-21285.69;5051409;28;20494;-79
2021/06/12 08:02:43;;;;;;;0.80;0.60;;;21.90;99.90;;;21.95;100.00;-21275.88;5065504;28;20798;-86
2021/06/12 08:05:11;;;;;;;0.70;0.60;;;21.70;99.90;;;22.14;100.00;-21280.94;5055836;28;20443;-81
2021/06/12 08:07:39;;;;;;;0.80;0.70;;;21.70;99.90;;;22.10;100.00;-21279.81;5074562;28;20443;-81
2021/06/12 08:10:10;;;;;;;0.80;0.70;;;21.60;99.90;;;21.76;100.00;-21270.56;5076807;28;20423;-78
2021/06/12 08:12:40;;;;;;;0.80;0.60;;;21.50;99.90;;;21.89;100.00;-21274.25;5071514;28;20525;-82
2021/06/12 08:15:10;;;;;;;0.80;0.70;;;21.40;99.90;;;21.60;100.00;-21266.47;5057375;28;20471;-82
2021/06/12 08:17:38;;;;;;;0.80;0.60;;;21.40;99.90;;;21.84;100.00;-21272.75;5057334;28;20520;-82
2021/06/12 08:20:08;;;;;;;0.77;0.60;;;21.30;99.90;;;21.99;100.00;-21276.84;5065984;28;20475;-81
2021/06/12 08:22:37;;;;;;;1.20;1.10;;;21.40;99.90;;;22.17;100.00;-21281.75;5051782;28;20443;-83
2021/06/12 08:25:06;;;;;;;0.70;0.63;;;21.50;99.90;;;22.54;100.00;-21291.53;5075019;28;20431;-83
2021/06/12 08:27:38;;;;;;;0.73;0.60;;;21.80;99.90;;;22.24;100.00;-21283.38;5067077;28;20502;-83
2021/06/12 08:30:08;;;;;;;0.70;0.70;;;21.90;99.90;;;22.12;100.00;-21280.25;5074174;28;20529;-87
2021/06/12 08:32:36;;;;;;;0.80;0.80;;;21.80;99.90;;;21.76;100.00;-21270.56;5076107;28;20469;-85
2021/06/12 08:35:04;;;;;;;0.80;0.70;;;21.70;99.90;;;21.89;100.00;-21274.09;5074730;28;20402;-83
2021/06/12 08:37:33;;;;;;;0.80;0.70;;;21.70;99.90;;;22.02;100.00;-21277.50;5057777;28;20471;-83
2021/06/12 08:40:01;;;;;;;0.70;0.60;;;21.60;99.90;;;22.04;100.00;-21278.06;5071852;28;20470;-79
2021/06/12 08:42:28;;;;;;;0.70;0.60;;;21.50;99.90;;;21.75;100.00;-21270.28;5069462;28;20775;-82
2021/06/12 08:45:00;;;;;;;0.80;0.60;;;21.30;99.90;;;21.76;100.00;-21270.69;5060209;28;20413;-81
2021/06/12 08:47:28;;;;;;;0.80;0.70;;;21.30;99.90;;;21.74;100.00;-21270.03;5074387;28;20435;-86
2021/06/12 08:49:55;;;;;;;0.70;0.60;;;21.30;99.90;;;21.79;100.00;-21271.38;5066549;28;20851;-81
2021/06/12 08:52:25;;;;;;;0.70;0.70;;;21.30;99.90;;;21.89;100.00;-21274.09;5071358;28;20447;-82
2021/06/12 08:54:53;;;;;;;0.80;0.60;;;21.40;99.90;;;22.05;100.00;-21278.47;5074840;28;20435;-79
2021/06/12 08:57:20;;;;;;;0.80;0.70;;;21.50;99.90;;;22.12;100.00;-21280.38;5068869;28;20466;-80
2021/06/12 08:59:48;;;;;;;0.80;0.70;;;21.60;99.90;;;22.05;100.00;-21278.31;5053886;28;20405;-81
2021/06/12 09:02:17;;;;;;;0.70;0.60;;;21.50;99.90;;;21.88;100.00;-21273.97;5064615;28;20399;-81
2021/06/12 09:04:51;;;;;;;0.80;0.60;;;21.40;99.90;;;21.37;100.00;-21260.22;5074308;28;20425;-85
2021/06/12 09:07:26;;;;;;;0.80;0.70;;;21.30;99.90;;;21.70;100.00;-21269.06;5064443;28;20554;-86
2021/06/12 09:09:56;;;;;;;0.80;0.70;;;21.20;99.90;;;21.41;100.00;-21261.28;5035811;28;20438;-78
2021/06/12 09:12:46;;;;;;;0.70;0.60;;;21.10;99.90;;;21.19;100.00;-21255.56;5053787;28;20527;-80
2021/06/12 09:15:16;;;;;;;0.80;0.63;;;20.90;99.90;;;20.94;100.00;-21248.75;5057302;28;20450;-80
2021/06/12 09:17:49;;;;;;;0.80;0.70;;;20.70;99.90;;;20.67;100.00;-21241.66;5070414;28;20454;-84
2021/06/12 09:20:39;;;;;;;1.20;1.00;;;20.50;99.90;;;20.49;100.00;-21236.72;5060167;28;20470;-83
2021/06/12 09:23:09;;;;;;;1.10;1.00;;;20.30;99.90;;;20.53;100.00;-21237.81;5067918;28;20497;-83
2021/06/12 09:25:40;;;;;;;0.87;0.70;;;20.10;99.90;;;20.41;100.00;-21234.69;5064104;28;20437;-83
2021/06/12 09:28:08;;;;;;;0.80;0.70;;;20.00;99.90;;;20.67;100.00;-21241.66;5058940;28;20440;-78
2021/06/12 09:30:37;;;;;;;0.80;0.60;;;20.10;99.90;;;20.59;100.00;-21239.47;5054557;28;20412;-83
2021/06/12 09:33:06;;;;;;;0.80;0.70;;;20.10;99.90;;;20.70;100.00;-21242.34;5073631;28;20411;-80
2021/06/12 09:35:37;;;;;;;0.73;0.63;;;20.10;99.90;;;20.90;100.00;-21247.78;5055744;28;20444;-82
2021/06/12 09:38:25;;;;;;;0.80;0.70;;;20.30;99.90;;;20.73;100.00;-21243.28;5046215;28;20480;-84
2021/06/12 09:40:54;;;;;;;0.70;0.60;;;20.40;99.90;;;20.95;100.00;-21249.00;5056626;28;20477;-85
2021/06/12 09:43:27;;;;;;;0.80;0.73;;;20.50;99.90;;;21.47;100.00;-21262.94;5056956;28;20923;-79
2021/06/12 09:45:56;;;;;;;1.03;0.93;;;20.70;99.90;;;21.89;100.00;-21274.09;5052548;28;20439;-81
2021/06/12 09:48:26;;;;;;;0.70;0.70;;;21.20;99.90;;;22.50;100.00;-21290.31;5063557;28;20490;-83
2021/06/12 09:51:10;;;;;;;0.83;0.83;;;21.70;99.90;;;22.53;100.00;-21291.28;5070912;28;20429;-83
2021/06/12 09:53:48;;;;;;;0.80;0.63;;;22.00;99.90;;;23.26;100.00;-21310.72;5071932;28;20458;-85
2021/06/12 09:56:16;;;;;;;0.70;0.60;;;22.40;99.90;;;24.01;100.00;-21330.72;5071549;28;20492;-80
2021/06/12 09:58:44;;;;;;;0.80;0.67;;;23.30;99.90;;;24.56;100.00;-21345.25;5062729;28;20479;-80
2021/06/12 10:01:15;;;;;;;0.80;0.70;;;23.90;99.90;;;24.96;100.00;-21355.81;5065673;28;20403;-79
2021/06/12 10:03:44;;;;;;;1.60;1.50;;;24.50;99.90;;;24.50;100.00;-21343.75;5060230;28;20485;-78
2021/06/12 10:06:15;;;;;;;0.73;0.60;;;24.70;99.90;;;22.99;100.00;-21303.53;5070322;28;20873;-78
2021/06/12 10:08:46;;;;;;;1.93;1.20;;;24.10;99.90;;;23.59;100.00;-21319.56;5066052;28;20458;-76
2021/06/12 10:11:14;;;;;;;0.70;0.60;;;23.80;99.90;;;23.26;100.00;-21310.59;5063527;28;20430;-76
2021/06/12 10:13:44;;;;;;;0.80;0.70;;;23.40;99.90;;;23.38;100.00;-21313.84;5055349;28;20439;-77
2021/06/12 10:16:14;;;;;;;0.80;0.70;;;23.30;99.90;;;23.41;100.00;-21314.66;5071013;28;20442;-76
2021/06/12 10:18:50;;;;;;;0.80;0.70;;;23.10;99.90;;;23.44;100.00;-21315.50;5040864;28;20512;-76